Nome の空港の天気 - METARとTAF

Nome, Nome Airport ( PAOM / OME ) - アメリカ アラスカ州Nome
飛行場実況気象(Metar)
観測時間08/22 07:53 AKDT (08/22 15:53 UTC)
風向・風速北 3m/s
視程10km以上
天気現象
少しの雲 雲底高度 4570m
気温4.4℃
湿度86%
気圧1007.4hPa
METARPAOM 221553Z 36005KT 10SM FEW150 04/02 A2975 RMK AO2 SLP074 T00440022
過去の天気等 Google飛行場航空写真 Wunderground天気予報

過去48時間のMETAR

飛行場予報(TAF)
発表時間: 8/22 03:21 AKDT (8/22 11:21 UTC)
予報対象時間: 22日4時 AKDT ~ 23日4時 AKDT
風向・風速西 2m/s
視程10km以上
少しの雲 雲底高度 3050m
少しの雲 雲底高度 6100m
22日12時 AKDT から
風向・風速北 6m/s
視程10km以上
全天の8割程度の雲 雲底高度 3050m
PAOM 221121Z 2212/2312 26003KT P6SM FEW100 FEW200
FM222000 35011KT P6SM BKN100